Gran Canaria Sur, Spain
Current Conditions -  °F | °C
As of 7:34 AM on Saturday 29 Nov 2014 (Local Time) from GCLP Reporting Station
Light Rain Light Rain  
Wind Chill: 63°   Ceiling: Unl
Heat Index: 63°   Visibility: 6mi
Dew Point: 55°   Wind: 22mph
Humidity: 77%   Direction: 350°N
Pressure: 29.59"   Gusts: 39mph
Location:  28°N, 15.6°W
Report Text: GCLP 290734Z 35019G34KT 320V020 9999 -RA FEW035 SCT06017/13 Q1002 NOSIG
Loading
Personal Weather Stations






























Interactive Weather Map New forecast layout! Learn more

10-Day Weather Forecast

Advertisements
Track Severe Weather on mobile